Terminal Aerodrome Forecast
Issued by NWS Amarillo, TX

Home | Current Version | Previous Version | Text Only | Print | Product List | Glossary On
Versions: 1 2 3 4 5 6 7 8 9 10 11 12 13 14 15 16 17
000
FTUS44 KAMA 312347
TAFGUY
TAF
KGUY 312347Z 0100/0124 06008KT P6SM SCT040 BKN300
     FM010400 04007KT P6SM VCTS OVC015CB
     FM010700 02006KT P6SM OVC015
     FM011800 07010KT P6SM OVC035=

USA.gov is the U.S. government's official web portal to all federal, state and local government web resources and services.